Time,TemperatureF,DewpointF,PressureIn,WindDirection,WindDirectionDegrees,WindSpeedMPH,WindSpeedGustMPH,Humidity,HourlyPrecipIn,Conditions,Clouds,dailyrainin,SoftwareType,DateUTC
2013-05-14 06:50:00,53.2,46.2,30.13,East,98,0.0,0.0,77,0.00,,,0.00,Wunderground v.1.15,2013-05-14 11:50:00,
2013-05-14 06:52:00,53.5,46.1,30.12,East,100,0.0,0.0,76,0.00,,,0.00,Wunderground v.1.15,2013-05-14 11:52:00,
2013-05-14 06:53:00,53.6,45.9,30.12,East,100,0.0,0.0,75,0.00,,,0.00,Wunderground v.1.15,2013-05-14 11:53:00,
2013-05-14 06:54:00,53.8,46.4,30.12,East,100,0.0,1.0,76,0.00,,,0.00,Wunderground v.1.15,2013-05-14 11:54:00,
2013-05-14 07:01:00,54.7,47.3,30.12,East,100,1.0,2.0,76,0.00,,,0.00,Wunderground v.1.15,2013-05-14 12:01:00,
2013-05-14 07:07:00,55.4,48.0,30.12,ESE,113,1.0,2.0,76,0.00,,,0.00,Wunderground v.1.15,2013-05-14 12:07:00,
2013-05-14 07:13:00,56.1,48.6,30.12,SE,125,1.0,3.0,76,0.00,,,0.00,Wunderground v.1.15,2013-05-14 12:13:00,
2013-05-14 07:19:00,56.8,49.7,30.12,South,185,2.0,3.0,77,0.00,,,0.00,Wunderground v.1.15,2013-05-14 12:19:00,
2013-05-14 07:25:00,57.6,50.1,30.13,SW,221,3.0,4.0,76,0.00,,,0.00,Wunderground v.1.15,2013-05-14 12:25:00,
2013-05-14 07:30:00,58.2,50.3,30.12,SW,222,3.0,5.0,75,0.00,,,0.00,Wunderground v.1.15,2013-05-14 12:30:00,
2013-05-14 08:13:00,60.7,51.2,30.12,West,264,6.0,6.0,71,0.00,,,0.00,Wunderground v.1.15,2013-05-14 13:13:00,
2013-05-14 08:19:00,61.1,51.6,30.11,WSW,238,5.0,7.0,71,0.00,,,0.00,Wunderground v.1.15,2013-05-14 13:19:00,
2013-05-14 08:24:00,61.4,51.5,30.11,SW,216,5.0,7.0,70,0.00,,,0.00,Wunderground v.1.15,2013-05-14 13:24:00,
2013-05-14 08:30:00,62.0,52.5,30.11,West,271,5.0,7.0,71,0.00,,,0.00,Wunderground v.1.15,2013-05-14 13:30:00,
2013-05-14 08:36:00,62.5,52.6,30.11,SW,218,5.0,7.0,70,0.00,,,0.00,Wunderground v.1.15,2013-05-14 13:36:00,
2013-05-14 08:42:00,63.2,52.5,30.11,SW,215,6.0,7.0,68,0.00,,,0.00,Wunderground v.1.15,2013-05-14 13:42:00,
2013-05-14 08:47:00,63.8,53.4,30.11,SW,236,6.0,9.0,69,0.00,,,0.00,Wunderground v.1.15,2013-05-14 13:47:00,
2013-05-14 08:53:00,64.9,54.5,30.11,WSW,241,6.0,6.0,69,0.00,,,0.00,Wunderground v.1.15,2013-05-14 13:53:00,
2013-05-14 08:58:00,65.7,54.0,30.11,WSW,246,5.0,8.0,66,0.00,,,0.00,Wunderground v.1.15,2013-05-14 13:58:00,
2013-05-14 09:04:00,66.5,54.4,30.10,WSW,240,5.0,7.0,65,0.00,,,0.00,Wunderground v.1.15,2013-05-14 14:04:00,
2013-05-14 09:09:00,67.2,55.9,30.10,West,265,6.0,8.0,67,0.00,,,0.00,Wunderground v.1.15,2013-05-14 14:09:00,
2013-05-14 09:14:00,67.7,55.9,30.10,SW,221,7.0,10.0,66,0.00,,,0.00,Wunderground v.1.15,2013-05-14 14:14:00,
2013-05-14 09:20:00,68.2,55.6,30.10,SW,229,7.0,8.0,64,0.00,,,0.00,Wunderground v.1.15,2013-05-14 14:20:00,
2013-05-14 09:25:00,68.5,55.4,30.10,WSW,249,7.0,9.0,63,0.00,,,0.00,Wunderground v.1.15,2013-05-14 14:25:00,
2013-05-14 09:31:00,68.7,56.0,30.10,SW,229,6.0,7.0,64,0.00,,,0.00,Wunderground v.1.15,2013-05-14 14:31:00,
2013-05-14 09:37:00,69.4,56.3,30.10,SW,225,6.0,9.0,63,0.00,,,0.00,Wunderground v.1.15,2013-05-14 14:37:00,
2013-05-14 09:43:00,70.0,55.5,30.09,WSW,252,6.0,8.0,60,0.00,,,0.00,Wunderground v.1.15,2013-05-14 14:43:00,
2013-05-14 09:49:00,70.4,56.3,30.09,WSW,238,6.0,9.0,61,0.00,,,0.00,Wunderground v.1.15,2013-05-14 14:49:00,
2013-05-14 09:54:00,70.9,56.8,30.09,SW,214,6.0,8.0,61,0.00,,,0.00,Wunderground v.1.15,2013-05-14 14:54:00,
2013-05-14 10:00:00,71.5,56.9,30.09,WSW,241,6.0,6.0,60,0.00,,,0.00,Wunderground v.1.15,2013-05-14 15:00:00,
2013-05-14 10:06:00,72.0,57.4,30.09,WSW,247,6.0,8.0,60,0.00,,,0.00,Wunderground v.1.15,2013-05-14 15:06:00,
2013-05-14 10:11:00,72.3,57.2,30.09,SW,227,7.0,7.0,59,0.00,,,0.00,Wunderground v.1.15,2013-05-14 15:11:00,
2013-05-14 10:17:00,73.0,57.3,30.09,SW,219,7.0,9.0,58,0.00,,,0.00,Wunderground v.1.15,2013-05-14 15:17:00,
2013-05-14 10:23:00,73.4,58.2,30.09,West,268,7.0,9.0,59,0.00,,,0.00,Wunderground v.1.15,2013-05-14 15:23:00,
2013-05-14 10:29:00,73.5,57.8,30.09,WSW,238,8.0,10.0,58,0.00,,,0.00,Wunderground v.1.15,2013-05-14 15:29:00,
2013-05-14 10:34:00,73.8,58.1,30.09,WSW,258,8.0,10.0,58,0.00,,,0.00,Wunderground v.1.15,2013-05-14 15:34:00,
2013-05-14 10:39:00,74.2,58.9,30.09,SW,235,7.0,10.0,59,0.00,,,0.00,Wunderground v.1.15,2013-05-14 15:39:00,
2013-05-14 10:45:00,74.4,57.7,30.09,SW,216,6.0,8.0,56,0.00,,,0.00,Wunderground v.1.15,2013-05-14 15:45:00,
2013-05-14 10:51:00,75.0,58.2,30.09,WSW,242,7.0,7.0,56,0.00,,,0.00,Wunderground v.1.15,2013-05-14 15:51:00,
2013-05-14 10:56:00,75.5,57.7,30.09,WSW,255,7.0,8.0,54,0.00,,,0.00,Wunderground v.1.15,2013-05-14 15:56:00,
2013-05-14 11:02:00,75.7,56.8,30.09,SSW,211,7.0,9.0,52,0.00,,,0.00,Wunderground v.1.15,2013-05-14 16:02:00,
2013-05-14 11:08:00,76.3,57.9,30.08,SSW,199,7.0,9.0,53,0.00,,,0.00,Wunderground v.1.15,2013-05-14 16:08:00,
2013-05-14 11:14:00,76.6,58.7,30.08,SSW,205,7.0,8.0,54,0.00,,,0.00,Wunderground v.1.15,2013-05-14 16:14:00,
2013-05-14 11:20:00,76.7,58.8,30.08,SW,217,8.0,8.0,54,0.00,,,0.00,Wunderground v.1.15,2013-05-14 16:20:00,
2013-05-14 12:07:00,79.2,59.0,30.06,SW,222,9.0,12.0,50,0.00,,,0.00,Wunderground v.1.15,2013-05-14 17:07:00,
2013-05-14 12:13:00,79.4,59.1,30.05,West,271,10.0,12.0,50,0.00,,,0.00,Wunderground v.1.15,2013-05-14 17:13:00,
2013-05-14 12:19:00,79.8,61.1,30.05,SW,214,8.0,13.0,53,0.00,,,0.00,Wunderground v.1.15,2013-05-14 17:19:00,
2013-05-14 12:25:00,79.8,60.6,30.05,SW,232,8.0,13.0,52,0.00,,,0.00,Wunderground v.1.15,2013-05-14 17:25:00,
2013-05-14 12:31:00,80.1,60.3,30.05,WSW,240,10.0,14.0,51,0.00,,,0.00,Wunderground v.1.15,2013-05-14 17:31:00,
2013-05-14 12:36:00,80.4,61.2,30.04,SW,222,8.0,14.0,52,0.00,,,0.00,Wunderground v.1.15,2013-05-14 17:36:00,
2013-05-14 12:42:00,80.8,59.9,30.04,WSW,245,9.0,15.0,49,0.00,,,0.00,Wunderground v.1.15,2013-05-14 17:42:00,
2013-05-14 12:48:00,80.6,60.8,30.04,SSW,211,11.0,11.0,51,0.00,,,0.00,Wunderground v.1.15,2013-05-14 17:48:00,
2013-05-14 12:54:00,80.9,61.1,30.04,SW,228,10.0,11.0,51,0.00,,,0.00,Wunderground v.1.15,2013-05-14 17:54:00,
2013-05-14 12:59:00,81.2,62.4,30.03,WSW,241,10.0,15.0,53,0.00,,,0.00,Wunderground v.1.15,2013-05-14 17:59:00,
2013-05-14 13:33:00,83.4,60.4,30.01,WSW,241,9.0,9.0,46,0.00,,,0.00,Wunderground v.1.15,2013-05-14 18:33:00,
2013-05-14 13:39:00,83.5,59.3,30.01,SW,221,9.0,10.0,44,0.00,,,0.00,Wunderground v.1.15,2013-05-14 18:39:00,
2013-05-14 13:45:00,83.2,59.0,30.01,SW,236,11.0,14.0,44,0.00,,,0.00,Wunderground v.1.15,2013-05-14 18:45:00,
2013-05-14 13:50:00,83.3,59.1,30.01,WSW,257,13.0,15.0,44,0.00,,,0.00,Wunderground v.1.15,2013-05-14 18:50:00,
2013-05-14 13:55:00,83.5,58.6,30.01,WSW,248,12.0,14.0,43,0.00,,,0.00,Wunderground v.1.15,2013-05-14 18:55:00,
2013-05-14 14:00:00,83.4,60.4,30.01,West,277,12.0,12.0,46,0.00,,,0.00,Wunderground v.1.15,2013-05-14 19:00:00,
2013-05-14 14:06:00,83.9,60.3,30.01,WSW,239,10.0,12.0,45,0.00,,,0.00,Wunderground v.1.15,2013-05-14 19:06:00,
2013-05-14 14:11:00,84.7,60.4,30.00,WSW,248,9.0,11.0,44,0.00,,,0.00,Wunderground v.1.15,2013-05-14 19:11:00,
2013-05-14 14:17:00,84.6,60.3,30.00,West,261,10.0,15.0,44,0.00,,,0.00,Wunderground v.1.15,2013-05-14 19:17:00,
2013-05-14 14:37:00,84.5,60.2,30.00,WSW,250,12.0,12.0,44,0.00,,,0.00,Wunderground v.1.15,2013-05-14 19:37:00,
2013-05-14 14:43:00,84.5,60.2,29.99,SW,235,11.0,18.0,44,0.00,,,0.00,Wunderground v.1.15,2013-05-14 19:43:00,
2013-05-14 14:49:00,84.5,59.5,29.99,WSW,247,13.0,15.0,43,0.00,,,0.00,Wunderground v.1.15,2013-05-14 19:49:00,
2013-05-14 14:54:00,84.7,59.1,29.99,WSW,246,13.0,15.0,42,0.00,,,0.00,Wunderground v.1.15,2013-05-14 19:54:00,
2013-05-14 15:00:00,85.0,60.6,29.99,WSW,238,12.0,12.0,44,0.00,,,0.00,Wunderground v.1.15,2013-05-14 20:00:00,
2013-05-14 15:06:00,85.3,60.3,29.99,West,259,11.0,14.0,43,0.00,,,0.00,Wunderground v.1.15,2013-05-14 20:06:00,
2013-05-14 15:12:00,85.4,59.0,29.99,SW,236,11.0,15.0,41,0.00,,,0.00,Wunderground v.1.15,2013-05-14 20:12:00,
2013-05-14 15:18:00,85.6,60.5,29.98,WSW,248,11.0,17.0,43,0.00,,,0.00,Wunderground v.1.15,2013-05-14 20:18:00,
2013-05-14 15:23:00,85.7,59.3,29.99,WSW,238,11.0,11.0,41,0.00,,,0.00,Wunderground v.1.15,2013-05-14 20:23:00,
2013-05-14 15:29:00,85.7,57.9,29.98,WSW,239,11.0,12.0,39,0.00,,,0.00,Wunderground v.1.15,2013-05-14 20:29:00,
2013-05-14 15:35:00,85.7,58.6,29.98,WSW,238,12.0,13.0,40,0.00,,,0.00,Wunderground v.1.15,2013-05-14 20:35:00,
2013-05-14 15:40:00,85.6,59.9,29.98,West,265,12.0,15.0,42,0.00,,,0.00,Wunderground v.1.15,2013-05-14 20:40:00,
2013-05-14 15:45:00,85.5,60.4,29.98,SW,232,12.0,15.0,43,0.00,,,0.00,Wunderground v.1.15,2013-05-14 20:45:00,
2013-05-14 15:50:00,85.7,60.0,29.98,WSW,254,11.0,14.0,42,0.00,,,0.00,Wunderground v.1.15,2013-05-14 20:50:00,
2013-05-14 15:56:00,85.4,59.0,29.98,WSW,256,12.0,16.0,41,0.00,,,0.00,Wunderground v.1.15,2013-05-14 20:56:00,
2013-05-14 16:02:00,85.2,58.8,29.98,WSW,249,14.0,14.0,41,0.00,,,0.00,Wunderground v.1.15,2013-05-14 21:02:00,
2013-05-14 16:07:00,85.4,59.7,29.97,WSW,252,13.0,16.0,42,0.00,,,0.00,Wunderground v.1.15,2013-05-14 21:07:00,
2013-05-14 16:12:00,85.5,59.1,29.97,WSW,243,13.0,14.0,41,0.00,,,0.00,Wunderground v.1.15,2013-05-14 21:12:00,
2013-05-14 16:17:00,85.6,59.9,29.97,WSW,239,12.0,17.0,42,0.00,,,0.00,Wunderground v.1.15,2013-05-14 21:17:00,
2013-05-14 16:23:00,85.5,59.8,29.97,WSW,257,12.0,13.0,42,0.00,,,0.00,Wunderground v.1.15,2013-05-14 21:23:00,
2013-05-14 16:29:00,85.3,59.6,29.97,WSW,254,12.0,14.0,42,0.00,,,0.00,Wunderground v.1.15,2013-05-14 21:29:00,
2013-05-14 16:34:00,85.4,59.7,29.97,WSW,258,12.0,15.0,42,0.00,,,0.00,Wunderground v.1.15,2013-05-14 21:34:00,
2013-05-14 16:39:00,85.3,59.6,29.97,West,275,12.0,15.0,42,0.00,,,0.00,Wunderground v.1.15,2013-05-14 21:39:00,
2013-05-14 16:44:00,85.2,59.5,29.97,WSW,243,12.0,14.0,42,0.00,,,0.00,Wunderground v.1.15,2013-05-14 21:44:00,
2013-05-14 16:50:00,85.2,60.2,29.98,WSW,255,11.0,13.0,43,0.00,,,0.00,Wunderground v.1.15,2013-05-14 21:50:00,
2013-05-14 16:55:00,85.1,59.4,29.97,West,262,11.0,13.0,42,0.00,,,0.00,Wunderground v.1.15,2013-05-14 21:55:00,
2013-05-14 17:00:00,84.9,58.6,29.97,SW,232,12.0,16.0,41,0.00,,,0.00,Wunderground v.1.15,2013-05-14 22:00:00,
2013-05-14 17:06:00,84.8,59.2,29.97,SW,234,13.0,16.0,42,0.00,,,0.00,Wunderground v.1.15,2013-05-14 22:06:00,
2013-05-14 17:12:00,84.7,59.1,29.97,WSW,245,13.0,13.0,42,0.00,,,0.00,Wunderground v.1.15,2013-05-14 22:12:00,
2013-05-14 17:18:00,84.5,58.9,29.97,WSW,250,13.0,16.0,42,0.00,,,0.00,Wunderground v.1.15,2013-05-14 22:18:00,
2013-05-14 17:23:00,84.4,58.8,29.96,SW,221,13.0,13.0,42,0.00,,,0.00,Wunderground v.1.15,2013-05-14 22:23:00,
2013-05-14 17:29:00,84.3,58.7,29.97,West,259,13.0,17.0,42,0.00,,,0.00,Wunderground v.1.15,2013-05-14 22:29:00,
2013-05-14 17:34:00,84.2,59.3,29.97,West,281,14.0,15.0,43,0.00,,,0.00,Wunderground v.1.15,2013-05-14 22:34:00,
2013-05-14 17:39:00,84.1,59.8,29.97,WSW,237,13.0,15.0,44,0.00,,,0.00,Wunderground v.1.15,2013-05-14 22:39:00,
2013-05-14 17:44:00,83.8,58.9,29.96,SW,234,12.0,16.0,43,0.00,,,0.00,Wunderground v.1.15,2013-05-14 22:44:00,
2013-05-14 17:50:00,83.5,59.3,29.96,SSW,212,13.0,13.0,44,0.00,,,0.00,Wunderground v.1.15,2013-05-14 22:50:00,
2013-05-14 17:55:00,83.5,59.3,29.96,SW,236,13.0,13.0,44,0.00,,,0.00,Wunderground v.1.15,2013-05-14 22:55:00,
2013-05-14 18:00:00,83.4,60.4,29.96,WSW,248,11.0,11.0,46,0.00,,,0.00,Wunderground v.1.15,2013-05-14 23:00:00,
2013-05-14 18:06:00,83.1,59.6,29.96,WSW,240,9.0,11.0,45,0.00,,,0.00,Wunderground v.1.15,2013-05-14 23:06:00,
2013-05-14 18:12:00,82.8,61.1,29.96,WSW,252,9.0,10.0,48,0.00,,,0.00,Wunderground v.1.15,2013-05-14 23:12:00,
2013-05-14 20:15:00,75.5,60.2,29.97,WSW,237,7.0,12.0,59,0.00,,,0.00,Wunderground v.1.15,2013-05-15 01:15:00,
2013-05-14 20:21:00,75.2,60.4,29.97,SSW,211,6.0,12.0,60,0.00,,,0.00,Wunderground v.1.15,2013-05-15 01:21:00,
2013-05-14 20:26:00,74.9,60.1,29.97,WSW,258,6.0,12.0,60,0.00,,,0.00,Wunderground v.1.15,2013-05-15 01:26:00,
2013-05-14 20:32:00,74.5,60.2,29.97,WSW,244,6.0,12.0,61,0.00,,,0.00,Wunderground v.1.15,2013-05-15 01:32:00,
2013-05-14 20:37:00,74.0,60.2,29.97,WSW,246,5.0,12.0,62,0.00,,,0.00,Wunderground v.1.15,2013-05-15 01:37:00,
2013-05-14 20:43:00,73.6,60.2,29.97,West,261,5.0,12.0,63,0.00,,,0.00,Wunderground v.1.15,2013-05-15 01:43:00,
2013-05-14 20:48:00,73.3,60.4,29.97,WSW,256,5.0,12.0,64,0.00,,,0.00,Wunderground v.1.15,2013-05-15 01:48:00,
2013-05-14 20:53:00,73.2,60.3,29.97,West,259,5.0,12.0,64,0.00,,,0.00,Wunderground v.1.15,2013-05-15 01:53:00,
2013-05-14 20:59:00,73.3,60.4,29.98,WSW,246,5.0,12.0,64,0.00,,,0.00,Wunderground v.1.15,2013-05-15 01:59:00,